Time;durP1;ratioP1;P1;durP2;ratioP2;P2;SDS_P1;SDS_P2;PMS_P1;PMS_P2;Temp;Humidity;BMP_temperature;BMP_pressure;BME280_temperature;BME280_humidity;BME280_pressure;Samples;Min_cycle;Max_cycle;Signal;HPM_P1;HPM_P2
2023/02/09 00:01:22;;;;;;;7.13;5.90;;;;;;;;;;5050371;28;20449;-68
2023/02/09 00:03:49;;;;;;;6.77;4.20;;;;;;;;;;5051218;28;20796;-68
2023/02/09 00:06:17;;;;;;;8.40;6.57;;;;;;;;;;5050378;28;20491;-67
2023/02/09 00:08:46;;;;;;;8.30;5.00;;;;;;;;;;5050612;28;20480;-68
2023/02/09 00:11:15;;;;;;;7.17;3.83;;;;;;;;;;5051322;28;20456;-67
2023/02/09 00:13:42;;;;;;;11.17;7.10;;;;;;;;;;5051106;28;20454;-68
2023/02/09 00:16:10;;;;;;;8.23;5.57;;;;;;;;;;5050225;28;20463;-68
2023/02/09 00:18:37;;;;;;;8.20;6.10;;;;;;;;;;5050041;28;20459;-68
2023/02/09 00:21:06;;;;;;;6.90;4.37;;;;;;;;;;5051170;28;20451;-68
2023/02/09 00:23:34;;;;;;;13.03;6.00;;;;;;;;;;5049921;28;20460;-68
2023/02/09 00:26:03;;;;;;;6.47;3.63;;;;;;;;;;5050851;28;20486;-68
2023/02/09 00:28:31;;;;;;;7.30;5.37;;;;;;;;;;5049798;28;20449;-68
2023/02/09 00:30:58;;;;;;;4.77;3.43;;;;;;;;;;5052134;28;20820;-68
2023/02/09 00:33:25;;;;;;;7.00;6.40;;;;;;;;;;5055652;28;20458;-68
2023/02/09 00:35:52;;;;;;;5.90;4.53;;;;;;;;;;5050684;28;20466;-68
2023/02/09 00:38:19;;;;;;;6.47;4.03;;;;;;;;;;5049343;28;20454;-67
2023/02/09 00:40:48;;;;;;;7.73;3.80;;;;;;;;;;5050714;28;20446;-68
2023/02/09 00:43:17;;;;;;;12.87;6.83;;;;;;;;;;5050329;28;20455;-67
2023/02/09 00:45:44;;;;;;;8.90;5.10;;;;;;;;;;5050371;28;20998;-67
2023/02/09 00:48:11;;;;;;;7.90;3.80;;;;;;;;;;5050167;28;20458;-68
2023/02/09 00:50:38;;;;;;;6.63;3.80;;;;;;;;;;5050004;28;20465;-68
2023/02/09 00:53:05;;;;;;;7.20;5.57;;;;;;;;;;5050013;28;20521;-68
2023/02/09 00:55:32;;;;;;;4.40;3.03;;;;;;;;;;5049866;28;20454;-68
2023/02/09 00:57:59;;;;;;;6.90;4.60;;;;;;;;;;5050161;28;20454;-68
2023/02/09 01:00:28;;;;;;;9.10;5.60;;;;;;;;;;5049664;28;20956;-68
2023/02/09 01:02:56;;;;;;;5.90;5.33;;;;;;;;;;5050084;28;20489;-68
2023/02/09 01:05:23;;;;;;;4.90;4.40;;;;;;;;;;5049918;28;20501;-68
2023/02/09 01:07:50;;;;;;;5.70;3.93;;;;;;;;;;5049998;28;20463;-68
2023/02/09 01:10:18;;;;;;;13.40;3.47;;;;;;;;;;5049520;28;20566;-68
2023/02/09 01:12:45;;;;;;;6.87;3.40;;;;;;;;;;5050728;28;20453;-68
2023/02/09 01:15:13;;;;;;;12.57;6.00;;;;;;;;;;5050944;28;20455;-68
2023/02/09 01:17:41;;;;;;;8.40;4.83;;;;;;;;;;5050098;28;20439;-68
2023/02/09 01:20:09;;;;;;;10.13;3.77;;;;;;;;;;5050759;28;20454;-68
2023/02/09 01:22:37;;;;;;;7.70;4.03;;;;;;;;;;5049652;28;20947;-68
2023/02/09 01:25:05;;;;;;;8.80;5.17;;;;;;;;;;5050119;28;20446;-68
2023/02/09 01:27:32;;;;;;;14.33;4.80;;;;;;;;;;5052010;28;20547;-68
2023/02/09 01:29:59;;;;;;;6.87;4.87;;;;;;;;;;5053815;28;20449;-68
2023/02/09 01:32:26;;;;;;;9.13;5.43;;;;;;;;;;5053760;28;20438;-68
2023/02/09 01:34:55;;;;;;;4.20;2.33;;;;;;;;;;5054088;28;20821;-68
2023/02/09 01:37:22;;;;;;;5.70;3.90;;;;;;;;;;5052595;28;20459;-67
2023/02/09 01:39:49;;;;;;;8.73;5.73;;;;;;;;;;5053483;28;20469;-68
2023/02/09 01:42:17;;;;;;;8.87;3.40;;;;;;;;;;5053051;28;20533;-67
2023/02/09 01:45:06;;;;;;;6.43;3.33;;;;;;;;;;5053438;28;20451;-68
2023/02/09 01:47:42;;;;;;;4.03;3.30;;;;;;;;;;5043938;28;20467;-68
2023/02/09 01:50:11;;;;;;;13.53;5.67;;;;;;;;;;5053116;28;20957;-68
2023/02/09 01:52:39;;;;;;;8.20;5.60;;;;;;;;;;5052924;28;20456;-68
2023/02/09 01:55:08;;;;;;;5.80;3.77;;;;;;;;;;5053309;28;20537;-68
2023/02/09 01:57:37;;;;;;;8.50;6.10;;;;;;;;;;5052001;28;20458;-68
2023/02/09 02:00:07;;;;;;;9.20;4.57;;;;;;;;;;5052308;28;20450;-68
2023/02/09 02:02:35;;;;;;;5.37;3.53;;;;;;;;;;5051757;28;20431;-68
2023/02/09 02:05:02;;;;;;;4.23;3.73;;;;;;;;;;5052914;28;20451;-68
2023/02/09 02:07:33;;;;;;;6.07;4.50;;;;;;;;;;5051700;28;20491;-68
2023/02/09 02:10:00;;;;;;;5.63;4.53;;;;;;;;;;5053275;28;20474;-68
2023/02/09 02:12:28;;;;;;;3.40;3.17;;;;;;;;;;5052233;28;20443;-68
2023/02/09 02:14:55;;;;;;;7.07;6.30;;;;;;;;;;5053291;28;20450;-68
2023/02/09 02:17:26;;;;;;;6.17;4.10;;;;;;;;;;5052182;28;20465;-68
2023/02/09 02:20:06;;;;;;;3.93;3.47;;;;;;;;;;5053049;28;20790;-68
2023/02/09 02:22:41;;;;;;;12.40;6.63;;;;;;;;;;5052070;28;20438;-68
2023/02/09 02:25:19;;;;;;;6.93;5.27;;;;;;;;;;5053116;28;20457;-68
2023/02/09 02:27:48;;;;;;;3.80;3.37;;;;;;;;;;5052639;28;20466;-68
2023/02/09 02:30:29;;;;;;;13.40;7.10;;;;;;;;;;5052174;28;20565;-67
2023/02/09 02:33:05;;;;;;;6.90;4.90;;;;;;;;;;5053015;28;20501;-67
2023/02/09 02:35:34;;;;;;;5.23;4.83;;;;;;;;;;5051964;28;20434;-68
2023/02/09 02:38:04;;;;;;;20.97;6.03;;;;;;;;;;5051563;28;20459;-68
2023/02/09 02:40:39;;;;;;;4.63;4.10;;;;;;;;;;5051806;28;20454;-68
2023/02/09 02:43:09;;;;;;;17.73;4.77;;;;;;;;;;5051284;28;20457;-68
2023/02/09 02:45:42;;;;;;;4.73;3.53;;;;;;;;;;5051773;28;20461;-69
2023/02/09 02:48:17;;;;;;;5.00;4.57;;;;;;;;;;5051814;28;20457;-69
2023/02/09 02:50:46;;;;;;;5.30;4.80;;;;;;;;;;5052642;28;20446;-69
2023/02/09 02:53:15;;;;;;;11.63;5.97;;;;;;;;;;5052158;28;20801;-67
2023/02/09 02:55:43;;;;;;;10.13;5.30;;;;;;;;;;5052604;28;20442;-69
2023/02/09 02:58:12;;;;;;;6.33;4.07;;;;;;;;;;5052177;28;20458;-68
2023/02/09 03:00:40;;;;;;;7.67;5.57;;;;;;;;;;5051927;28;20447;-68
2023/02/09 03:03:09;;;;;;;15.90;3.07;;;;;;;;;;5052269;28;20457;-68
2023/02/09 03:05:38;;;;;;;7.20;4.67;;;;;;;;;;5051691;28;20439;-68
2023/02/09 03:08:05;;;;;;;5.23;4.07;;;;;;;;;;5051605;28;20494;-68
2023/02/09 03:10:33;;;;;;;9.83;4.10;;;;;;;;;;5051622;28;20449;-68
2023/02/09 03:13:06;;;;;;;4.87;4.40;;;;;;;;;;5052373;28;20446;-68
2023/02/09 03:21:47;;;;;;;10.80;2.53;;;;;;;;;;5044608;28;20445;-68
2023/02/09 03:24:18;;;;;;;5.37;4.97;;;;;;;;;;5051517;28;20969;-67
2023/02/09 03:26:50;;;;;;;12.97;3.33;;;;;;;;;;5051296;28;20478;-68
2023/02/09 03:29:17;;;;;;;8.23;3.80;;;;;;;;;;5051696;28;20442;-68
2023/02/09 03:31:45;;;;;;;6.97;3.67;;;;;;;;;;5051903;28;20454;-68
2023/02/09 03:34:12;;;;;;;3.33;2.83;;;;;;;;;;5051850;28;20465;-68
2023/02/09 03:36:40;;;;;;;13.90;5.20;;;;;;;;;;5051375;28;20454;-69
2023/02/09 03:39:09;;;;;;;6.57;3.60;;;;;;;;;;5051616;28;20454;-69
2023/02/09 03:41:36;;;;;;;7.53;5.43;;;;;;;;;;5050824;28;20477;-68
2023/02/09 03:46:48;;;;;;;6.27;3.00;;;;;;;;;;5051600;28;20596;-68
2023/02/09 03:49:16;;;;;;;3.03;2.73;;;;;;;;;;5058642;28;20454;-67
2023/02/09 03:51:43;;;;;;;3.70;2.73;;;;;;;;;;5051337;28;20477;-68
2023/02/09 03:54:11;;;;;;;4.67;3.50;;;;;;;;;;5051456;28;20782;-70
2023/02/09 03:56:38;;;;;;;4.83;3.33;;;;;;;;;;5049971;28;20461;-69
2023/02/09 03:59:05;;;;;;;6.37;4.30;;;;;;;;;;5050205;28;20454;-68
2023/02/09 04:01:33;;;;;;;2.80;2.60;;;;;;;;;;5048417;28;20461;-68
2023/02/09 04:04:00;;;;;;;7.67;4.80;;;;;;;;;;5051271;28;20450;-68
2023/02/09 04:06:27;;;;;;;10.47;5.77;;;;;;;;;;5049989;28;20496;-68
2023/02/09 04:08:55;;;;;;;12.70;4.13;;;;;;;;;;5051042;28;20484;-68
2023/02/09 04:11:23;;;;;;;3.03;2.83;;;;;;;;;;5050811;28;20446;-68
2023/02/09 04:13:50;;;;;;;7.43;4.87;;;;;;;;;;5051297;28;20468;-68
2023/02/09 04:16:17;;;;;;;4.70;2.33;;;;;;;;;;5050178;28;20457;-68
2023/02/09 04:18:45;;;;;;;6.03;4.50;;;;;;;;;;5051147;28;20831;-68
2023/02/09 04:21:12;;;;;;;5.20;4.80;;;;;;;;;;5051381;28;20442;-68
2023/02/09 04:23:39;;;;;;;7.20;5.80;;;;;;;;;;5051498;28;20453;-69
2023/02/09 04:26:07;;;;;;;8.73;3.73;;;;;;;;;;5050903;28;20450;-69
2023/02/09 04:28:35;;;;;;;13.43;5.00;;;;;;;;;;5050589;28;20455;-68
2023/02/09 04:31:02;;;;;;;5.53;3.00;;;;;;;;;;5051120;28;20442;-68
2023/02/09 04:33:29;;;;;;;6.30;5.00;;;;;;;;;;5050535;28;20442;-69
2023/02/09 04:35:56;;;;;;;4.70;3.63;;;;;;;;;;5050274;28;20442;-68
2023/02/09 04:38:24;;;;;;;5.57;3.10;;;;;;;;;;5049751;28;20458;-69
2023/02/09 04:40:53;;;;;;;4.90;4.53;;;;;;;;;;5050284;28;20450;-70
2023/02/09 04:43:20;;;;;;;6.83;4.30;;;;;;;;;;5050275;28;20512;-69
2023/02/09 04:45:49;;;;;;;5.20;2.63;;;;;;;;;;5051147;28;20450;-68
2023/02/09 04:48:17;;;;;;;6.60;4.90;;;;;;;;;;5049961;28;20488;-69
2023/02/09 04:50:44;;;;;;;5.30;3.50;;;;;;;;;;5051091;28;20807;-69
2023/02/09 04:53:11;;;;;;;4.97;4.00;;;;;;;;;;5050927;28;20450;-69
2023/02/09 04:55:38;;;;;;;11.67;4.23;;;;;;;;;;5050144;28;20446;-69
2023/02/09 05:00:52;;;;;;;7.67;5.13;;;;;;;;;;5050826;28;20417;-69
2023/02/09 05:03:19;;;;;;;12.77;7.20;;;;;;;;;;5054090;28;20453;-68
2023/02/09 05:05:46;;;;;;;3.83;3.53;;;;;;;;;;5054729;28;20458;-69
2023/02/09 05:08:13;;;;;;;7.60;4.07;;;;;;;;;;5053727;28;20489;-67
2023/02/09 05:10:41;;;;;;;12.87;6.80;;;;;;;;;;5054694;28;20454;-69
2023/02/09 05:13:08;;;;;;;6.73;3.90;;;;;;;;;;5054682;28;20461;-69
2023/02/09 05:15:35;;;;;;;6.60;3.20;;;;;;;;;;5053669;28;20938;-69
2023/02/09 05:18:03;;;;;;;5.70;4.20;;;;;;;;;;5054316;28;20816;-69
2023/02/09 05:20:30;;;;;;;6.73;4.73;;;;;;;;;;5052976;28;20450;-69
2023/02/09 05:22:57;;;;;;;6.83;3.63;;;;;;;;;;5054574;28;20883;-69
2023/02/09 05:25:25;;;;;;;3.40;3.20;;;;;;;;;;5053262;28;20450;-70
2023/02/09 05:27:52;;;;;;;9.97;4.40;;;;;;;;;;5053648;28;20488;-68
2023/02/09 05:30:19;;;;;;;6.00;2.93;;;;;;;;;;5053291;28;20453;-67
2023/02/09 05:32:46;;;;;;;6.73;3.80;;;;;;;;;;5054493;28;20473;-68
2023/02/09 05:35:15;;;;;;;21.90;5.37;;;;;;;;;;5054313;28;20462;-68
2023/02/09 05:37:42;;;;;;;4.90;2.20;;;;;;;;;;5053259;28;20461;-70
2023/02/09 05:40:09;;;;;;;3.20;2.93;;;;;;;;;;5053937;28;20447;-79
2023/02/09 05:42:36;;;;;;;5.83;5.10;;;;;;;;;;5053332;28;20441;-69
2023/02/09 05:45:04;;;;;;;4.53;4.13;;;;;;;;;;5054087;28;20452;-75
2023/02/09 05:47:31;;;;;;;6.43;3.80;;;;;;;;;;5053062;28;20491;-72
2023/02/09 05:49:58;;;;;;;8.20;6.73;;;;;;;;;;5053350;28;20442;-68
2023/02/09 05:52:26;;;;;;;9.60;6.40;;;;;;;;;;5053050;28;20788;-68
2023/02/09 05:54:53;;;;;;;5.47;4.93;;;;;;;;;;5053709;28;20454;-68
2023/02/09 05:57:20;;;;;;;7.70;5.63;;;;;;;;;;5052861;28;20465;-71
2023/02/09 05:59:47;;;;;;;6.57;5.97;;;;;;;;;;5053622;28;20442;-72
2023/02/09 06:02:15;;;;;;;6.07;5.47;;;;;;;;;;5053034;28;20446;-69
2023/02/09 06:04:42;;;;;;;10.47;4.50;;;;;;;;;;5053274;28;20449;-71
2023/02/09 06:07:09;;;;;;;12.70;4.60;;;;;;;;;;5052734;28;20490;-71
2023/02/09 06:09:37;;;;;;;6.80;6.20;;;;;;;;;;5051615;28;20473;-72
2023/02/09 06:12:04;;;;;;;6.47;4.67;;;;;;;;;;5053275;28;21077;-72
2023/02/09 06:14:32;;;;;;;6.77;5.77;;;;;;;;;;5051704;28;20965;-72
2023/02/09 06:16:59;;;;;;;5.23;4.70;;;;;;;;;;5053455;28;20449;-72
2023/02/09 06:19:26;;;;;;;7.40;4.83;;;;;;;;;;5052446;28;20449;-72
2023/02/09 06:21:53;;;;;;;8.43;7.17;;;;;;;;;;5053009;28;20456;-72
2023/02/09 06:24:20;;;;;;;6.37;3.23;;;;;;;;;;5052527;28;20445;-71
2023/02/09 06:26:48;;;;;;;10.20;3.30;;;;;;;;;;5053190;28;20460;-71
2023/02/09 06:29:15;;;;;;;12.23;4.10;;;;;;;;;;5052291;28;20443;-71
2023/02/09 06:31:42;;;;;;;7.60;4.60;;;;;;;;;;5053214;28;20453;-72
2023/02/09 06:34:10;;;;;;;7.83;6.23;;;;;;;;;;5053359;28;20448;-72
2023/02/09 06:36:37;;;;;;;2.07;1.90;;;;;;;;;;5052393;28;20458;-72
2023/02/09 06:39:06;;;;;;;3.23;2.53;;;;;;;;;;5052387;28;20464;-72
2023/02/09 06:41:34;;;;;;;10.17;8.30;;;;;;;;;;5052086;28;20728;-72
2023/02/09 06:44:02;;;;;;;11.37;4.93;;;;;;;;;;5052708;28;20451;-72
2023/02/09 06:46:29;;;;;;;4.13;3.73;;;;;;;;;;5052083;28;20449;-72
2023/02/09 06:48:56;;;;;;;6.47;5.83;;;;;;;;;;5052511;28;20490;-72
2023/02/09 06:51:23;;;;;;;16.73;7.00;;;;;;;;;;5051986;28;20834;-72
2023/02/09 06:53:50;;;;;;;6.70;5.13;;;;;;;;;;5052803;28;20461;-72
2023/02/09 06:56:18;;;;;;;3.47;3.17;;;;;;;;;;5051911;28;21271;-71
2023/02/09 06:58:46;;;;;;;5.37;5.07;;;;;;;;;;5051839;28;20460;-71
2023/02/09 07:01:15;;;;;;;4.80;4.40;;;;;;;;;;5052677;28;20838;-72
2023/02/09 07:03:42;;;;;;;8.03;3.30;;;;;;;;;;5052443;28;20946;-72
2023/02/09 07:06:10;;;;;;;9.30;6.30;;;;;;;;;;5052485;28;20446;-76
2023/02/09 07:08:37;;;;;;;6.30;4.27;;;;;;;;;;5048612;28;20509;-71
2023/02/09 07:11:05;;;;;;;6.30;3.67;;;;;;;;;;5051765;28;20458;-73
2023/02/09 07:13:33;;;;;;;9.00;8.00;;;;;;;;;;5050479;28;20465;-75
2023/02/09 07:16:01;;;;;;;15.40;7.90;;;;;;;;;;5051191;28;20946;-70
2023/02/09 07:18:30;;;;;;;6.97;3.80;;;;;;;;;;5050554;28;20453;-69
2023/02/09 07:20:57;;;;;;;9.13;5.30;;;;;;;;;;5051182;28;20510;-71
2023/02/09 07:23:25;;;;;;;5.77;5.13;;;;;;;;;;5050525;28;20454;-75
2023/02/09 07:25:52;;;;;;;7.87;4.93;;;;;;;;;;5050794;28;20447;-73
2023/02/09 07:28:20;;;;;;;6.00;5.50;;;;;;;;;;5050319;28;20485;-72
2023/02/09 07:30:48;;;;;;;12.60;5.83;;;;;;;;;;5041877;28;20446;-73
2023/02/09 07:33:16;;;;;;;8.73;5.73;;;;;;;;;;5049867;28;20533;-72
2023/02/09 07:35:44;;;;;;;11.43;7.70;;;;;;;;;;5051377;28;20449;-71
2023/02/09 07:38:11;;;;;;;7.90;7.03;;;;;;;;;;5049552;28;20468;-73
2023/02/09 07:40:39;;;;;;;10.97;6.60;;;;;;;;;;5049349;28;20958;-72
2023/02/09 07:43:06;;;;;;;5.60;5.10;;;;;;;;;;5050075;28;20442;-72
2023/02/09 07:45:34;;;;;;;8.13;7.37;;;;;;;;;;5050349;28;20651;-72
2023/02/09 07:48:01;;;;;;;6.87;5.20;;;;;;;;;;5049924;28;20481;-72
2023/02/09 07:50:28;;;;;;;13.03;7.17;;;;;;;;;;5050075;28;20963;-70
2023/02/09 07:52:57;;;;;;;7.43;4.00;;;;;;;;;;5051304;28;20455;-73
2023/02/09 07:55:24;;;;;;;6.70;5.70;;;;;;;;;;5045652;28;20450;-74
2023/02/09 07:57:51;;;;;;;8.70;4.70;;;;;;;;;;5050471;28;20544;-69
2023/02/09 08:00:19;;;;;;;16.98;9.88;;;;;;;;;;5049155;28;20440;-72
2023/02/09 08:02:46;;;;;;;14.80;8.07;;;;;;;;;;5050804;28;20654;-72
2023/02/09 08:05:16;;;;;;;11.23;5.50;;;;;;;;;;5050729;28;20458;-72
2023/02/09 08:07:43;;;;;;;14.53;6.50;;;;;;;;;;5051120;28;20490;-73
2023/02/09 08:10:12;;;;;;;8.20;5.47;;;;;;;;;;5052060;28;20819;-72
2023/02/09 08:15:26;;;;;;;7.90;6.40;;;;;;;;;;5051724;28;20534;-73
2023/02/09 08:17:55;;;;;;;13.10;7.53;;;;;;;;;;5051662;28;20927;-73
2023/02/09 08:20:24;;;;;;;13.03;7.70;;;;;;;;;;5050001;28;20940;-73
2023/02/09 08:22:52;;;;;;;9.60;6.30;;;;;;;;;;5051178;28;20450;-73
2023/02/09 08:25:21;;;;;;;10.10;6.73;;;;;;;;;;5050458;28;20450;-74
2023/02/09 08:27:49;;;;;;;10.23;7.60;;;;;;;;;;5051515;28;20859;-72
2023/02/09 08:30:16;;;;;;;7.40;6.47;;;;;;;;;;5051016;28;20453;-71
2023/02/09 08:32:44;;;;;;;13.73;8.00;;;;;;;;;;5048206;28;20988;-72
2023/02/09 08:35:11;;;;;;;8.73;5.73;;;;;;;;;;5051870;28;20455;-73
2023/02/09 08:37:38;;;;;;;12.73;8.43;;;;;;;;;;5050454;28;20462;-72
2023/02/09 08:40:06;;;;;;;12.37;5.83;;;;;;;;;;5051263;28;20449;-70
2023/02/09 08:42:34;;;;;;;13.60;8.70;;;;;;;;;;5050324;28;20657;-72
2023/02/09 08:45:01;;;;;;;10.93;8.20;;;;;;;;;;5051191;28;20449;-72
2023/02/09 08:47:28;;;;;;;9.27;6.50;;;;;;;;;;5050094;28;20464;-72
2023/02/09 08:49:56;;;;;;;18.30;10.17;;;;;;;;;;5051353;28;20521;-73
2023/02/09 08:52:23;;;;;;;15.00;8.43;;;;;;;;;;5050725;28;20491;-72
2023/02/09 08:54:51;;;;;;;12.43;9.70;;;;;;;;;;5050839;28;20458;-71
2023/02/09 08:57:18;;;;;;;11.23;7.37;;;;;;;;;;5050041;28;20802;-71
2023/02/09 08:59:47;;;;;;;12.80;9.37;;;;;;;;;;5051381;28;20470;-74
2023/02/09 09:02:14;;;;;;;13.37;8.07;;;;;;;;;;5049913;28;20460;-73
2023/02/09 09:04:41;;;;;;;16.00;7.70;;;;;;;;;;5051363;28;20939;-78
2023/02/09 09:07:08;;;;;;;15.60;8.30;;;;;;;;;;5051018;28;20455;-78
2023/02/09 09:09:36;;;;;;;13.27;8.43;;;;;;;;;;5049932;28;20588;-77
2023/02/09 09:12:03;;;;;;;32.07;8.77;;;;;;;;;;5050441;28;20451;-75
2023/02/09 09:14:30;;;;;;;18.97;7.03;;;;;;;;;;5050382;28;20957;-81
2023/02/09 09:16:59;;;;;;;14.67;9.33;;;;;;;;;;5051393;28;20447;-76
2023/02/09 09:19:27;;;;;;;14.80;8.47;;;;;;;;;;5050043;28;20459;-76
2023/02/09 09:21:54;;;;;;;18.37;9.03;;;;;;;;;;5050772;28;20488;-75
2023/02/09 09:24:22;;;;;;;18.23;8.07;;;;;;;;;;5049333;28;20680;-73
2023/02/09 09:26:49;;;;;;;18.00;11.83;;;;;;;;;;5050521;28;20537;-75
2023/02/09 09:29:16;;;;;;;10.17;8.60;;;;;;;;;;5050201;28;20488;-74
2023/02/09 09:31:43;;;;;;;17.10;7.53;;;;;;;;;;5050975;28;20464;-75
2023/02/09 09:34:12;;;;;;;20.90;8.97;;;;;;;;;;5050114;28;20449;-73
2023/02/09 09:36:39;;;;;;;16.83;10.40;;;;;;;;;;5050858;28;20958;-70
2023/02/09 09:39:06;;;;;;;12.40;6.43;;;;;;;;;;5050057;28;20455;-73
2023/02/09 09:41:35;;;;;;;20.03;11.27;;;;;;;;;;5050587;28;20723;-73
2023/02/09 09:44:02;;;;;;;20.07;9.03;;;;;;;;;;5049990;28;20452;-73
2023/02/09 09:46:34;;;;;;;17.57;9.87;;;;;;;;;;5049678;28;20952;-74
2023/02/09 09:49:01;;;;;;;16.80;10.27;;;;;;;;;;5053496;28;20479;-72
2023/02/09 09:51:34;;;;;;;12.47;8.07;;;;;;;;;;5052299;28;20460;-75
2023/02/09 09:54:02;;;;;;;13.37;8.67;;;;;;;;;;5054044;28;20435;-74
2023/02/09 09:56:30;;;;;;;14.20;7.47;;;;;;;;;;5053606;28;20479;-73
2023/02/09 09:58:57;;;;;;;13.60;8.53;;;;;;;;;;5054129;28;20456;-75
2023/02/09 10:01:27;;;;;;;16.07;11.43;;;;;;;;;;5052913;28;20958;-75
2023/02/09 10:03:57;;;;;;;13.13;10.43;;;;;;;;;;5053571;28;20818;-73
2023/02/09 10:06:24;;;;;;;11.60;7.97;;;;;;;;;;5052822;28;20464;-75
2023/02/09 10:08:54;;;;;;;19.17;8.80;;;;;;;;;;5053045;28;20570;-75
2023/02/09 10:11:23;;;;;;;13.60;9.03;;;;;;;;;;5052863;28;20453;-76
2023/02/09 10:13:51;;;;;;;19.80;10.13;;;;;;;;;;5052894;28;21858;-76
2023/02/09 10:16:20;;;;;;;18.60;10.60;;;;;;;;;;5052848;28;20457;-75
2023/02/09 10:18:50;;;;;;;18.60;9.17;;;;;;;;;;5055250;28;20464;-76
2023/02/09 10:21:17;;;;;;;17.53;8.93;;;;;;;;;;5053056;28;20454;-74
2023/02/09 10:23:45;;;;;;;21.37;10.17;;;;;;;;;;5052878;28;20458;-74
2023/02/09 10:26:24;;;;;;;18.20;8.27;;;;;;;;;;5052835;28;20454;-74
2023/02/09 10:28:52;;;;;;;15.07;7.97;;;;;;;;;;5052894;28;20489;-73
2023/02/09 10:31:23;;;;;;;13.77;8.77;;;;;;;;;;5053615;28;20446;-73
2023/02/09 10:33:51;;;;;;;19.53;8.70;;;;;;;;;;5051942;28;20457;-73
2023/02/09 10:36:24;;;;;;;15.30;7.50;;;;;;;;;;5051736;28;20442;-72
2023/02/09 10:38:52;;;;;;;17.57;9.40;;;;;;;;;;5052853;28;20496;-73
2023/02/09 10:41:19;;;;;;;12.00;8.70;;;;;;;;;;5052646;28;20442;-74
2023/02/09 10:43:51;;;;;;;11.83;8.97;;;;;;;;;;5052485;28;20943;-74
2023/02/09 10:46:20;;;;;;;12.83;8.40;;;;;;;;;;5052245;28;20446;-70
2023/02/09 10:48:48;;;;;;;16.20;8.40;;;;;;;;;;5053156;28;21005;-70
2023/02/09 10:51:16;;;;;;;12.10;8.53;;;;;;;;;;5052623;28;20794;-69
2023/02/09 10:53:57;;;;;;;16.60;10.17;;;;;;;;;;5053106;28;20447;-70
2023/02/09 10:56:25;;;;;;;20.10;10.53;;;;;;;;;;5051955;28;20443;-75
2023/02/09 10:58:54;;;;;;;19.60;10.00;;;;;;;;;;5049586;28;20466;-70
2023/02/09 11:01:23;;;;;;;13.83;7.40;;;;;;;;;;5052175;28;20462;-70
2023/02/09 11:03:58;;;;;;;12.70;7.90;;;;;;;;;;5052203;28;20450;-70
2023/02/09 11:06:26;;;;;;;13.50;8.10;;;;;;;;;;5051791;28;20511;-70
2023/02/09 11:08:56;;;;;;;9.70;7.27;;;;;;;;;;5052127;28;20490;-70
2023/02/09 11:11:28;;;;;;;20.97;11.67;;;;;;;;;;5051681;28;20808;-70
2023/02/09 11:13:56;;;;;;;14.20;7.77;;;;;;;;;;5052080;28;20954;-69
2023/02/09 11:16:45;;;;;;;18.90;8.07;;;;;;;;;;5051753;28;20449;-70
2023/02/09 11:19:21;;;;;;;14.80;8.67;;;;;;;;;;5047531;28;20462;-70
2023/02/09 11:21:55;;;;;;;19.00;9.07;;;;;;;;;;5052103;28;20470;-70
2023/02/09 11:24:25;;;;;;;18.00;9.20;;;;;;;;;;5051725;28;20441;-70
2023/02/09 11:26:56;;;;;;;9.97;6.47;;;;;;;;;;5051975;28;20446;-70
2023/02/09 11:29:28;;;;;;;16.13;9.03;;;;;;;;;;5051551;28;20564;-70
2023/02/09 11:32:03;;;;;;;13.07;8.67;;;;;;;;;;5052009;28;20438;-70
2023/02/09 11:34:45;;;;;;;15.73;8.87;;;;;;;;;;5051569;28;20437;-70
2023/02/09 11:37:17;;;;;;;13.70;8.37;;;;;;;;;;5038952;28;20981;-70
2023/02/09 11:39:48;;;;;;;11.20;7.63;;;;;;;;;;5052097;28;20472;-70
2023/02/09 11:45:05;;;;;;;17.20;10.10;;;;;;;;;;5052126;28;20422;-70
2023/02/09 11:47:40;;;;;;;16.60;7.87;;;;;;;;;;5050623;28;20460;-70
2023/02/09 11:50:09;;;;;;;16.30;8.90;;;;;;;;;;5051878;28;20478;-69
2023/02/09 11:52:38;;;;;;;15.07;7.90;;;;;;;;;;5051136;28;20461;-70
2023/02/09 11:55:09;;;;;;;11.70;8.60;;;;;;;;;;5051624;28;20451;-70
2023/02/09 11:57:38;;;;;;;14.00;9.30;;;;;;;;;;5050940;28;20808;-70
2023/02/09 12:00:07;;;;;;;14.80;8.67;;;;;;;;;;5051626;28;20476;-70
2023/02/09 12:02:46;;;;;;;14.63;8.83;;;;;;;;;;5051470;28;20464;-70
2023/02/09 12:05:16;;;;;;;17.53;10.57;;;;;;;;;;5051532;28;20453;-70
2023/02/09 12:07:47;;;;;;;11.90;7.83;;;;;;;;;;5051402;28;20861;-70
2023/02/09 12:10:22;;;;;;;18.07;10.97;;;;;;;;;;5036805;28;20559;-67
2023/02/09 12:12:51;;;;;;;21.67;7.97;;;;;;;;;;5051093;28;20926;-70
2023/02/09 12:15:20;;;;;;;13.77;7.17;;;;;;;;;;5050907;28;20446;-70
2023/02/09 12:17:50;;;;;;;10.20;7.70;;;;;;;;;;5050671;28;20442;-70
2023/02/09 12:20:22;;;;;;;14.37;9.50;;;;;;;;;;5050566;28;20465;-70
2023/02/09 12:22:52;;;;;;;13.73;8.87;;;;;;;;;;5051316;28;20458;-70
2023/02/09 12:25:21;;;;;;;11.30;8.03;;;;;;;;;;5050285;28;20459;-70
2023/02/09 12:28:06;;;;;;;14.67;9.47;;;;;;;;;;5050850;28;20476;-70
2023/02/09 12:30:52;;;;;;;16.87;9.00;;;;;;;;;;5050959;28;20478;-71
2023/02/09 12:33:28;;;;;;;13.53;7.97;;;;;;;;;;5059215;28;20449;-70
2023/02/09 12:35:59;;;;;;;17.57;10.00;;;;;;;;;;5053603;28;20450;-70
2023/02/09 12:38:26;;;;;;;14.80;8.57;;;;;;;;;;5049940;28;20462;-70
2023/02/09 12:41:03;;;;;;;17.10;8.70;;;;;;;;;;5050918;28;20454;-70
2023/02/09 12:43:31;;;;;;;13.13;9.50;;;;;;;;;;5050507;28;20454;-70
2023/02/09 12:46:18;;;;;;;17.80;8.77;;;;;;;;;;5051072;28;20454;-70
2023/02/09 12:48:48;;;;;;;14.10;9.40;;;;;;;;;;5050933;28;20461;-70
2023/02/09 12:51:30;;;;;;;15.77;9.60;;;;;;;;;;5050122;28;20461;-69
2023/02/09 12:53:57;;;;;;;13.27;9.70;;;;;;;;;;5050623;28;20451;-70
2023/02/09 12:56:42;;;;;;;16.93;8.87;;;;;;;;;;5050302;28;20450;-70
2023/02/09 12:59:13;;;;;;;18.80;8.93;;;;;;;;;;5050804;28;20453;-70
2023/02/09 13:01:58;;;;;;;14.57;7.90;;;;;;;;;;5050925;28;20449;-69
2023/02/09 13:04:27;;;;;;;15.37;7.40;;;;;;;;;;5050280;28;20458;-70
2023/02/09 13:06:55;;;;;;;17.63;8.30;;;;;;;;;;5050230;28;20449;-70
2023/02/09 13:09:26;;;;;;;15.67;9.30;;;;;;;;;;5049730;28;20493;-70
2023/02/09 13:11:57;;;;;;;16.93;9.80;;;;;;;;;;5050436;28;20449;-69
2023/02/09 13:14:24;;;;;;;15.63;9.37;;;;;;;;;;5050277;28;20450;-70
2023/02/09 13:17:13;;;;;;;15.80;8.57;;;;;;;;;;5050220;28;20453;-70
2023/02/09 13:19:53;;;;;;;16.07;9.80;;;;;;;;;;5050818;28;20486;-70
2023/02/09 13:22:27;;;;;;;14.27;8.37;;;;;;;;;;5051132;28;20442;-69
2023/02/09 13:24:57;;;;;;;18.00;12.00;;;;;;;;;;5054470;28;20449;-70
2023/02/09 13:27:24;;;;;;;23.97;12.40;;;;;;;;;;5053310;28;20442;-70
2023/02/09 13:29:52;;;;;;;17.30;9.50;;;;;;;;;;5054304;28;20493;-69
2023/02/09 13:32:26;;;;;;;16.17;9.07;;;;;;;;;;5053534;28;20447;-70
2023/02/09 13:34:57;;;;;;;22.67;10.13;;;;;;;;;;5054332;28;20453;-70
2023/02/09 13:37:27;;;;;;;14.53;8.50;;;;;;;;;;5053052;28;20507;-71
2023/02/09 13:39:59;;;;;;;15.90;9.97;;;;;;;;;;5054195;28;20538;-70
2023/02/09 13:42:28;;;;;;;15.03;8.50;;;;;;;;;;5053286;28;20955;-70
2023/02/09 13:44:56;;;;;;;17.80;9.90;;;;;;;;;;5054089;28;20532;-70
2023/02/09 13:47:23;;;;;;;15.47;10.90;;;;;;;;;;5053247;28;20782;-70
2023/02/09 13:49:58;;;;;;;12.27;9.60;;;;;;;;;;5040737;28;20486;-70
2023/02/09 13:52:25;;;;;;;17.33;10.17;;;;;;;;;;5053541;28;20456;-70
2023/02/09 13:54:53;;;;;;;19.23;10.83;;;;;;;;;;5054033;28;20450;-70
2023/02/09 13:57:28;;;;;;;23.67;10.07;;;;;;;;;;5052437;28;20958;-70
2023/02/09 13:59:55;;;;;;;18.07;8.83;;;;;;;;;;5053487;28;20450;-70
2023/02/09 14:02:25;;;;;;;16.70;9.43;;;;;;;;;;5053200;28;20461;-70
2023/02/09 14:04:53;;;;;;;16.80;9.70;;;;;;;;;;5053646;28;20454;-70
2023/02/09 14:07:23;;;;;;;21.13;10.03;;;;;;;;;;5052529;28;20454;-70
2023/02/09 14:09:53;;;;;;;18.60;10.33;;;;;;;;;;5053742;28;20486;-70
2023/02/09 14:12:49;;;;;;;19.10;10.33;;;;;;;;;;5052890;28;20529;-70
2023/02/09 14:17:56;;;;;;;15.30;9.70;;;;;;;;;;5052921;28;20501;-70
2023/02/09 14:20:24;;;;;;;17.67;10.00;;;;;;;;;;5052881;28;20827;-70
2023/02/09 14:22:57;;;;;;;21.00;10.47;;;;;;;;;;5053263;28;21014;-70
2023/02/09 14:25:25;;;;;;;12.97;8.63;;;;;;;;;;5052615;28;20450;-70
2023/02/09 14:27:52;;;;;;;19.07;10.10;;;;;;;;;;5052877;28;20454;-70
2023/02/09 14:30:20;;;;;;;17.77;10.10;;;;;;;;;;5052235;28;21013;-69
2023/02/09 14:32:51;;;;;;;11.50;9.63;;;;;;;;;;5053253;28;20821;-70
2023/02/09 14:35:20;;;;;;;21.20;10.97;;;;;;;;;;5051210;28;20934;-69
2023/02/09 14:37:48;;;;;;;15.33;10.53;;;;;;;;;;5052800;28;20462;-70
2023/02/09 14:40:23;;;;;;;20.07;10.90;;;;;;;;;;5052414;28;20442;-67
2023/02/09 14:42:57;;;;;;;15.67;9.90;;;;;;;;;;5052831;28;20444;-70
2023/02/09 14:45:39;;;;;;;18.63;9.87;;;;;;;;;;5052396;28;20450;-70
2023/02/09 14:48:19;;;;;;;16.87;9.83;;;;;;;;;;5050710;28;20457;-70
2023/02/09 14:50:46;;;;;;;17.63;10.23;;;;;;;;;;5053011;28;20466;-70
2023/02/09 14:53:14;;;;;;;19.00;10.57;;;;;;;;;;5052837;28;20446;-70
2023/02/09 14:55:43;;;;;;;23.13;12.00;;;;;;;;;;5052505;28;20457;-70
2023/02/09 14:58:19;;;;;;;19.37;11.47;;;;;;;;;;5052156;28;20446;-70
2023/02/09 15:00:47;;;;;;;17.70;10.87;;;;;;;;;;5052930;28;20446;-70
2023/02/09 15:03:14;;;;;;;19.53;10.60;;;;;;;;;;5052331;28;20454;-70
2023/02/09 15:05:41;;;;;;;16.77;10.40;;;;;;;;;;5052281;28;20477;-70